ETHB

Details ICAO ETHB
Name Bueckeburg
Region Germany - Military
Timezone Europe/Berlin (UTC+1.0)
Plans Departing 0
Arriving 2
Stats Elevation 230 ft / 70 m (AMSL)
Location 52.278407° 9.082213°
Runways 1
Magnetic Variation 2.497° E
Sunrise 2017-12-17 07:29:51 UTC / 2017-12-17 08:29:51 Local
Sunset 2017-12-17 15:12:27 UTC / 2017-12-17 16:12:27 Local
Advertisement - Login to hide

Runways

ID Width Length Bearing (true) Bearing (mag) Surface Threshold Offset Overrun Length
08 148 ft / 45 m 5,998 ft / 1,828 m 77.62° 75.12° Asphalt 535 ft / 163 m 0 ft / 0 m
26 148 ft / 45 m 5,998 ft / 1,828 m 257.64° 255.14° Asphalt 0 ft / 0 m 0 ft / 0 m

Map

Weather


0- 5 10 15 20 25 30 35+ Temperature / ° C

Clouds and Precipitation
Forecast for 2017-12-17 12:00 UTC. Updated 41 minutes ago

Ground ~20,000 ft ~40,000 ft Winds

METAR

ETHB 170920Z AUTO 30008KT 5000 // ////// 02/01 Q1020 ///

TAF

Not found

Frequencies

Tower 122.10 MHz TWR
Approach 123.30 MHz RADAR
Approach 131.32 MHz BREMEN RADAR
Approach 124.50 MHz RADAR
Warning: Do not use this data for real-world aviation or navigation. No guarantee of current accuracy is given.